Time;durP1;ratioP1;P1;durP2;ratioP2;P2;SDS_P1;SDS_P2;PMS_P1;PMS_P2;Temp;Humidity;BMP_temperature;BMP_pressure;BME280_temperature;BME280_humidity;BME280_pressure;Samples;Min_cycle;Max_cycle;Signal;HPM_P1;HPM_P2
2022/03/12 00:00:26;;;;;;;18.30;15.07;;;;;;;9.61;nan;101130.47;5073552;28;20097;-50
2022/03/12 00:02:51;;;;;;;17.67;15.55;;;;;;;9.68;nan;101147.84;5056101;28;20058;-53
2022/03/12 00:05:18;;;;;;;20.48;15.75;;;;;;;9.65;nan;101154.94;5055999;28;20375;-52
2022/03/12 00:07:43;;;;;;;21.85;16.83;;;;;;;9.65;nan;101152.31;5073571;28;20028;-56
2022/03/12 00:10:13;;;;;;;19.75;15.38;;;;;;;9.28;nan;101097.97;5073475;28;20034;-52
2022/03/12 00:12:42;;;;;;;19.25;15.93;;;;;;;9.54;nan;101156.03;5073538;28;20479;-51
2022/03/12 00:15:12;;;;;;;21.05;15.85;;;;;;;9.49;nan;101149.16;5055335;28;20031;-49
2022/03/12 00:17:45;;;;;;;22.17;17.05;;;;;;;9.26;nan;101120.78;5073513;28;20036;-50
2022/03/12 00:20:16;;;;;;;20.77;15.95;;;;;;;9.50;nan;101157.03;5073476;28;20037;-53
2022/03/12 00:22:44;;;;;;;19.83;15.80;;;;;;;9.08;nan;101097.56;5073029;28;20078;-52
2022/03/12 00:25:10;;;;;;;22.98;16.15;;;;;;;9.45;nan;101166.78;5073290;28;20033;-54
2022/03/12 00:27:41;;;;;;;18.63;15.93;;;;;;;9.40;nan;101163.38;5073069;28;20365;-52
2022/03/12 00:30:07;;;;;;;19.05;16.50;;;;;;;9.36;nan;101171.38;5073292;28;20029;-56
2022/03/12 00:32:37;;;;;;;19.92;16.25;;;;;;;8.94;nan;101097.00;5055341;28;20044;-55
2022/03/12 00:35:06;;;;;;;21.80;16.42;;;;;;;9.30;nan;101177.63;5055885;28;20028;-53
2022/03/12 00:37:31;;;;;;;21.30;15.77;;;;;;;8.92;nan;101117.19;5054989;28;20483;-53
2022/03/12 00:39:57;;;;;;;23.83;18.00;;;;;;;8.84;nan;101106.81;5072805;28;20060;-54
2022/03/12 00:42:22;;;;;;;20.52;16.95;;;;;;;9.23;nan;101185.66;5072778;28;20070;-54
2022/03/12 00:44:48;;;;;;;22.73;16.75;;;;;;;9.10;nan;101173.69;5073052;28;20047;-56
2022/03/12 00:47:13;;;;;;;20.17;16.98;;;;;;;9.18;nan;101177.00;5055108;28;20086;-53
2022/03/12 00:49:39;;;;;;;25.45;18.58;;;;;;;8.79;nan;101115.69;5072730;28;20032;-56
2022/03/12 00:52:04;;;;;;;19.83;16.23;;;;;;;8.96;nan;101177.44;5054753;28;20666;-53
2022/03/12 00:54:30;;;;;;;20.55;18.08;;;;;;;8.67;nan;101119.44;5072768;28;20033;-54
2022/03/12 00:56:55;;;;;;;23.60;18.25;;;;;;;8.84;nan;101166.34;5054697;28;20039;-55
2022/03/12 00:59:20;;;;;;;21.48;17.25;;;;;;;8.38;nan;101095.53;5054883;28;20039;-55
2022/03/12 01:01:46;;;;;;;23.20;18.27;;;;;;;8.72;nan;101161.34;5072716;28;20032;-52
2022/03/12 01:04:11;;;;;;;21.95;18.60;;;;;;;8.55;nan;101153.81;5072441;28;20033;-54
2022/03/12 01:06:37;;;;;;;21.33;18.38;;;;;;;8.56;nan;101176.50;5038036;28;20044;-54
2022/03/12 01:09:03;;;;;;;23.00;18.10;;;;;;;8.52;nan;101147.75;5072337;28;20036;-52
2022/03/12 01:11:29;;;;;;;20.50;17.25;;;;;;;8.65;nan;101167.59;5072293;28;20020;-52
2022/03/12 01:13:55;;;;;;;19.77;16.75;;;;;;;8.72;nan;101162.22;5054684;28;20047;-54
2022/03/12 01:16:21;;;;;;;19.63;17.13;;;;;;;7.49;nan;100958.25;5072402;28;20031;-55
2022/03/12 01:18:46;;;;;;;21.88;17.52;;;;;;;8.83;nan;101165.47;5072445;28;20085;-53
2022/03/12 01:21:17;;;;;;;20.52;16.60;;;;;;;8.88;nan;101163.63;5071823;28;20404;-52
2022/03/12 01:23:45;;;;;;;18.77;16.25;;;;;;;8.91;nan;101163.56;5072327;28;20048;-55
2022/03/12 01:26:11;;;;;;;19.58;15.60;;;;;;;8.59;nan;101091.63;5072393;28;20040;-53
2022/03/12 01:28:37;;;;;;;18.95;15.48;;;;;;;8.98;nan;101159.06;5054374;28;20033;-48
2022/03/12 01:31:02;;;;;;;18.33;16.17;;;;;;;8.95;nan;101144.25;5071926;28;20107;-52
2022/03/12 01:33:28;;;;;;;20.10;15.85;;;;;;;8.96;nan;101156.44;5054074;28;20098;-50
2022/03/12 01:35:54;;;;;;;17.65;15.75;;;;;;;8.74;nan;101114.94;5054148;28;20028;-54
2022/03/12 01:38:28;;;;;;;18.02;15.88;;;;;;;8.58;nan;101075.00;5071952;28;20495;-51
2022/03/12 01:40:54;;;;;;;18.83;15.95;;;;;;;9.00;nan;101139.75;5072364;28;20120;-51
2022/03/12 01:43:19;;;;;;;18.75;15.85;;;;;;;8.97;nan;101141.56;5072306;28;20115;-52
2022/03/12 01:45:44;;;;;;;18.35;14.80;;;;;;;8.94;nan;101142.50;5054234;28;20124;-51
2022/03/12 01:48:10;;;;;;;21.52;14.70;;;;;;;8.90;nan;101135.56;5054150;28;20072;-52
2022/03/12 01:50:37;;;;;;;19.25;14.82;;;;;;;8.39;nan;101053.53;5071991;28;20440;-54
2022/03/12 01:53:10;;;;;;;17.05;14.48;;;;;;;8.84;nan;101129.59;5071753;28;20025;-52
2022/03/12 01:55:37;;;;;;;17.73;13.50;;;;;;;8.77;nan;101113.09;5072157;28;20081;-53
2022/03/12 01:58:03;;;;;;;16.55;14.32;;;;;;;8.81;nan;101124.41;5053973;28;20075;-54
2022/03/12 02:00:57;;;;;;;19.10;13.80;;;;;;;8.86;nan;101133.94;5071838;28;20045;-56
2022/03/12 02:03:29;;;;;;;14.18;12.77;;;;;;;8.79;nan;101119.19;5068829;28;20483;-54
2022/03/12 02:05:58;;;;;;;17.08;15.23;;;;;;;8.90;nan;101140.81;5072185;28;20052;-53
2022/03/12 02:08:23;;;;;;;15.93;14.32;;;;;;;8.51;nan;101070.78;5054303;28;20067;-53
2022/03/12 02:10:50;;;;;;;15.90;13.70;;;;;;;8.98;nan;101149.44;5071929;28;20065;-53
2022/03/12 02:13:17;;;;;;;17.15;14.43;;;;;;;8.99;nan;101155.50;5071777;28;20032;-52
2022/03/12 02:15:43;;;;;;;16.23;14.50;;;;;;;9.00;nan;101141.50;5071791;28;20100;-52
2022/03/12 02:18:09;;;;;;;16.65;13.73;;;;;;;8.94;nan;101139.88;5057044;28;20139;-51
2022/03/12 02:20:35;;;;;;;16.42;14.20;;;;;;;8.69;nan;101095.78;5057720;28;20040;-52
2022/03/12 02:23:00;;;;;;;15.77;13.43;;;;;;;8.71;nan;101097.50;5075591;28;20097;-53
2022/03/12 02:25:28;;;;;;;16.38;13.65;;;;;;;8.38;nan;101056.19;5075582;28;20040;-52
2022/03/12 02:27:54;;;;;;;14.68;13.18;;;;;;;9.09;nan;101150.94;5057443;28;20523;-52
2022/03/12 02:30:21;;;;;;;14.70;12.70;;;;;;;8.91;nan;101118.94;5075318;28;20047;-55
2022/03/12 02:32:47;;;;;;;13.68;11.98;;;;;;;9.17;nan;101163.00;5040723;28;20156;-52
2022/03/12 02:35:13;;;;;;;17.85;13.75;;;;;;;9.23;nan;101169.88;5057113;28;20122;-55
2022/03/12 02:37:41;;;;;;;14.95;12.98;;;;;;;9.14;nan;101149.94;5075279;28;20372;-54
2022/03/12 02:40:09;;;;;;;17.83;12.52;;;;;;;9.28;nan;101163.63;5074914;28;20039;-53
2022/03/12 02:42:36;;;;;;;13.35;11.95;;;;;;;9.24;nan;101167.25;5075211;28;20052;-53
2022/03/12 02:45:05;;;;;;;14.55;12.60;;;;;;;9.29;nan;101154.88;5057401;28;20033;-50
2022/03/12 02:47:32;;;;;;;14.93;12.45;;;;;;;9.30;nan;101174.13;5075137;28;20036;-49
2022/03/12 02:50:15;;;;;;;12.70;11.40;;;;;;;9.31;nan;101165.34;5075145;28;20024;-54
2022/03/12 02:52:44;;;;;;;16.08;12.35;;;;;;;9.26;nan;101164.56;5075091;28;20044;-54
2022/03/12 02:55:13;;;;;;;14.18;12.25;;;;;;;9.10;nan;101144.81;5057329;28;20029;-56
2022/03/12 02:57:40;;;;;;;13.95;12.13;;;;;;;9.13;nan;101157.88;5056926;28;20041;-50
2022/03/12 03:00:08;;;;;;;16.42;13.25;;;;;;;9.14;nan;101165.69;5074982;28;20175;-50
2022/03/12 03:02:40;;;;;;;14.25;12.27;;;;;;;8.74;nan;101102.66;5057510;28;20024;-53
2022/03/12 03:05:41;;;;;;;12.48;11.25;;;;;;;9.19;nan;101168.25;5074934;28;20047;-51
2022/03/12 03:08:10;;;;;;;13.43;12.03;;;;;;;9.19;nan;101176.13;5059870;28;20116;-54
2022/03/12 03:10:37;;;;;;;14.32;11.82;;;;;;;8.85;nan;101105.06;5075145;28;20297;-51
2022/03/12 03:13:18;;;;;;;13.75;12.27;;;;;;;9.24;nan;101169.00;5074721;28;20032;-51
2022/03/12 03:15:47;;;;;;;12.77;11.40;;;;;;;9.22;nan;101169.06;5074566;28;20545;-50
2022/03/12 03:18:15;;;;;;;12.95;11.52;;;;;;;9.20;nan;101175.22;5056375;28;20109;-50
2022/03/12 03:20:41;;;;;;;13.02;11.60;;;;;;;9.20;nan;101178.69;5074947;28;20036;-51
2022/03/12 03:23:08;;;;;;;13.15;11.52;;;;;;;9.18;nan;101175.25;5074322;28;20062;-52
2022/03/12 03:25:34;;;;;;;12.32;11.02;;;;;;;8.80;nan;101114.81;5056887;28;20028;-51
2022/03/12 03:27:59;;;;;;;14.95;11.52;;;;;;;8.77;nan;101107.88;5072959;28;20032;-52
2022/03/12 03:30:25;;;;;;;12.02;10.43;;;;;;;9.10;nan;101156.19;5056528;28;20040;-55
2022/03/12 03:32:51;;;;;;;11.80;10.43;;;;;;;9.21;nan;101169.06;5074295;28;20054;-51
2022/03/12 03:35:17;;;;;;;11.48;10.25;;;;;;;9.24;nan;101176.88;5074159;28;20488;-54
2022/03/12 03:37:42;;;;;;;10.57;9.48;;;;;;;9.17;nan;101165.63;5056584;28;20138;-52
2022/03/12 03:40:09;;;;;;;11.15;9.75;;;;;;;9.19;nan;101163.88;5074254;28;20060;-54
2022/03/12 03:42:34;;;;;;;9.30;8.15;;;;;;;9.26;nan;101177.72;5072985;28;20037;-54
2022/03/12 03:45:02;;;;;;;9.45;8.55;;;;;;;8.92;nan;101119.81;5073928;28;20036;-51
2022/03/12 03:47:28;;;;;;;10.30;8.50;;;;;;;9.33;nan;101188.06;5074093;28;20115;-53
2022/03/12 03:49:54;;;;;;;9.23;8.32;;;;;;;9.08;nan;101130.84;5039320;28;20085;-55
2022/03/12 03:52:19;;;;;;;8.35;7.55;;;;;;;9.40;nan;101184.38;5074077;28;20430;-52
2022/03/12 03:54:45;;;;;;;8.85;7.90;;;;;;;9.40;nan;101178.25;5074176;28;20098;-54
2022/03/12 03:57:13;;;;;;;8.55;7.28;;;;;;;9.33;nan;101181.94;5072527;28;20043;-53
2022/03/12 03:59:38;;;;;;;9.23;6.85;;;;;;;9.37;nan;101176.56;5073732;28;20116;-56
2022/03/12 04:02:04;;;;;;;8.85;7.57;;;;;;;9.32;nan;101188.94;5073516;28;20064;-54
2022/03/12 04:04:33;;;;;;;7.00;6.30;;;;;;;8.97;nan;101128.44;5073623;28;20067;-52
2022/03/12 04:06:59;;;;;;;7.00;6.32;;;;;;;8.97;nan;101150.31;5073808;28;20079;-54
2022/03/12 04:09:25;;;;;;;6.28;5.68;;;;;;;8.79;nan;101111.31;5039300;28;20497;-53
2022/03/12 04:11:50;;;;;;;6.28;5.65;;;;;;;9.18;nan;101196.28;5073678;28;20108;-52
2022/03/12 04:14:15;;;;;;;6.80;6.20;;;;;;;9.16;nan;101190.19;5055637;28;20028;-53
2022/03/12 04:16:43;;;;;;;7.45;5.82;;;;;;;9.15;nan;101198.09;5073284;28;20423;-52
2022/03/12 04:19:09;;;;;;;6.13;5.35;;;;;;;9.18;nan;101203.28;5055322;28;20040;-55
2022/03/12 04:21:34;;;;;;;5.65;5.15;;;;;;;9.14;nan;101194.59;5055587;28;20044;-52
2022/03/12 04:24:00;;;;;;;6.00;5.40;;;;;;;9.22;nan;101200.56;5055509;28;20131;-51
2022/03/12 04:26:26;;;;;;;5.30;4.80;;;;;;;9.31;nan;101215.28;5071968;28;20028;-51
2022/03/12 04:28:51;;;;;;;6.43;5.22;;;;;;;9.26;nan;101196.97;5055101;28;20033;-50
2022/03/12 04:31:18;;;;;;;6.25;5.35;;;;;;;9.36;nan;101208.16;5055370;28;20154;-55
2022/03/12 04:33:43;;;;;;;5.70;5.20;;;;;;;8.98;nan;101143.31;5073394;28;20052;-53
2022/03/12 04:36:13;;;;;;;6.05;5.30;;;;;;;8.86;nan;101135.69;5072955;28;20117;-53
2022/03/12 04:38:38;;;;;;;5.50;5.00;;;;;;;8.84;nan;101142.72;5073047;28;20071;-55
2022/03/12 04:41:05;;;;;;;5.85;5.35;;;;;;;9.05;nan;101193.03;5072485;28;20067;-54
2022/03/12 04:43:30;;;;;;;6.32;5.72;;;;;;;9.00;nan;101213.25;5054860;28;20037;-53
2022/03/12 04:45:58;;;;;;;7.68;5.53;;;;;;;8.85;nan;101205.69;5072567;28;20075;-53
2022/03/12 04:48:23;;;;;;;5.32;4.82;;;;;;;8.86;nan;101203.94;5055042;28;20037;-54
2022/03/12 04:50:53;;;;;;;6.32;5.32;;;;;;;8.74;nan;101212.91;5072974;28;20033;-55
2022/03/12 04:53:19;;;;;;;5.50;4.97;;;;;;;8.23;nan;101135.97;5072874;28;20072;-55
2022/03/12 04:55:45;;;;;;;6.18;5.38;;;;;;;8.24;nan;101163.94;5072696;28;20028;-53
2022/03/12 04:58:12;;;;;;;6.07;5.07;;;;;;;8.51;nan;101217.72;5054892;28;20043;-55
2022/03/12 05:00:38;;;;;;;5.55;5.05;;;;;;;8.45;nan;101220.44;5054774;28;20514;-55
2022/03/12 05:03:08;;;;;;;5.13;4.63;;;;;;;8.04;nan;101155.56;5073047;28;20094;-53
2022/03/12 05:05:34;;;;;;;6.03;4.93;;;;;;;8.35;nan;101224.97;5054709;28;20400;-53
2022/03/12 05:07:59;;;;;;;6.35;5.53;;;;;;;7.93;nan;101150.50;5072656;28;20064;-52
2022/03/12 05:10:29;;;;;;;7.13;5.20;;;;;;;8.33;nan;101236.38;5072630;28;20125;-52
2022/03/12 05:13:00;;;;;;;5.55;4.60;;;;;;;8.18;nan;101215.63;5071130;28;20422;-57
2022/03/12 05:15:25;;;;;;;5.55;5.05;;;;;;;7.84;nan;101165.50;5072780;28;20024;-55
2022/03/12 05:17:51;;;;;;;4.97;4.57;;;;;;;8.22;nan;101233.91;5071256;28;20040;-53
2022/03/12 05:20:22;;;;;;;5.45;4.95;;;;;;;7.78;nan;101160.38;5072203;28;20055;-55
2022/03/12 05:22:49;;;;;;;8.82;5.13;;;;;;;8.13;nan;101225.34;5070997;28;20090;-53
2022/03/12 05:25:18;;;;;;;6.90;5.60;;;;;;;8.10;nan;101223.63;5071149;28;20028;-51
2022/03/12 05:27:53;;;;;;;6.68;5.28;;;;;;;7.99;nan;101222.94;5072216;28;20083;-55
2022/03/12 05:30:22;;;;;;;5.88;5.28;;;;;;;7.62;nan;101170.22;5072042;28;20036;-52
2022/03/12 05:32:48;;;;;;;6.80;5.70;;;;;;;7.57;nan;101163.31;5051706;28;20128;-54
2022/03/12 05:35:17;;;;;;;6.28;5.28;;;;;;;7.51;nan;101163.41;5033706;28;20048;-54
2022/03/12 05:37:45;;;;;;;6.57;5.88;;;;;;;7.43;nan;101165.28;5051989;28;20037;-52
2022/03/12 05:40:11;;;;;;;7.03;6.32;;;;;;;7.80;nan;101239.81;5052178;28;20064;-54
2022/03/12 05:42:37;;;;;;;7.18;5.88;;;;;;;7.72;nan;101241.69;5034304;28;20412;-51
2022/03/12 05:45:08;;;;;;;7.13;6.05;;;;;;;7.02;nan;101109.13;5052045;28;20033;-57
2022/03/12 05:47:35;;;;;;;7.07;6.38;;;;;;;7.76;nan;101246.84;5017591;28;20032;-55
2022/03/12 05:50:02;;;;;;;7.60;6.18;;;;;;;7.74;nan;101246.00;5049589;28;20120;-50
2022/03/12 05:52:27;;;;;;;7.80;5.75;;;;;;;7.50;nan;101211.47;5054420;28;20027;-54
2022/03/12 05:54:52;;;;;;;6.72;6.03;;;;;;;7.65;nan;101254.00;5056108;28;20387;-55
2022/03/12 05:57:18;;;;;;;5.88;5.38;;;;;;;7.59;nan;101245.38;5055862;28;20060;-53
2022/03/12 05:59:45;;;;;;;5.90;5.30;;;;;;;7.57;nan;101245.38;5054849;28;20029;-53
2022/03/12 06:02:10;;;;;;;6.35;5.75;;;;;;;7.13;nan;101174.41;5055558;28;20044;-54
2022/03/12 06:04:36;;;;;;;6.32;5.13;;;;;;;7.53;nan;101248.09;5054758;28;20400;-50
2022/03/12 06:07:02;;;;;;;7.95;6.05;;;;;;;7.56;nan;101254.13;5055929;28;20060;-53
2022/03/12 06:09:27;;;;;;;6.85;5.78;;;;;;;7.64;nan;101256.66;5055833;28;20116;-53
2022/03/12 06:11:54;;;;;;;6.88;5.93;;;;;;;7.63;nan;101252.28;5055976;28;20045;-50
2022/03/12 06:14:21;;;;;;;6.72;5.80;;;;;;;7.35;nan;101205.50;5056028;28;20028;-49
2022/03/12 06:16:48;;;;;;;7.00;5.45;;;;;;;7.77;nan;101261.69;5037952;28;20037;-54
2022/03/12 06:19:15;;;;;;;6.45;5.85;;;;;;;7.78;nan;101271.31;5054435;28;20044;-56
2022/03/12 06:21:41;;;;;;;8.45;5.57;;;;;;;7.44;nan;101196.69;5055432;28;20056;-52
2022/03/12 06:24:06;;;;;;;6.47;5.45;;;;;;;7.76;nan;101261.72;5055241;28;20415;-54
2022/03/12 06:26:35;;;;;;;8.10;5.47;;;;;;;7.87;nan;101272.91;5055682;28;20094;-56
2022/03/12 06:29:02;;;;;;;8.40;5.97;;;;;;;7.84;nan;101283.44;5055617;28;20036;-56
2022/03/12 06:31:28;;;;;;;7.05;5.85;;;;;;;7.96;nan;101271.91;5037953;28;20028;-55
2022/03/12 06:33:54;;;;;;;6.47;5.80;;;;;;;8.00;nan;101294.59;5055442;28;20044;-52
2022/03/12 06:36:21;;;;;;;6.82;5.47;;;;;;;8.01;nan;101286.69;5055207;28;20052;-55
2022/03/12 06:38:47;;;;;;;7.45;6.10;;;;;;;8.03;nan;101289.28;5055083;28;20479;-55
2022/03/12 06:41:13;;;;;;;8.00;5.53;;;;;;;8.09;nan;101278.69;5054305;28;20074;-55
2022/03/12 06:43:42;;;;;;;5.57;5.07;;;;;;;8.10;nan;101299.66;5055447;28;20035;-55
2022/03/12 06:46:08;;;;;;;8.23;5.80;;;;;;;8.14;nan;101297.88;5038109;28;20033;-51
2022/03/12 06:48:35;;;;;;;7.28;5.80;;;;;;;8.00;nan;101271.00;5055660;28;20032;-54
2022/03/12 06:51:01;;;;;;;7.85;5.82;;;;;;;8.05;nan;101285.78;5054960;28;20063;-55
2022/03/12 06:53:27;;;;;;;7.10;5.50;;;;;;;8.15;nan;101300.44;5055011;28;20495;-55
2022/03/12 06:55:53;;;;;;;6.57;5.80;;;;;;;8.26;nan;101306.41;5036994;28;20041;-54
2022/03/12 06:58:18;;;;;;;6.25;5.10;;;;;;;8.37;nan;101309.78;5020454;28;20141;-55
2022/03/12 07:00:44;;;;;;;4.97;4.55;;;;;;;8.14;nan;101254.16;5036901;28;20502;-55
2022/03/12 07:03:09;;;;;;;7.97;5.15;;;;;;;8.60;nan;101327.75;5054481;28;20060;-57
2022/03/12 07:05:35;;;;;;;8.52;5.70;;;;;;;8.69;nan;101329.38;5053376;28;20032;-55
2022/03/12 07:08:00;;;;;;;6.05;5.38;;;;;;;8.72;nan;101332.81;5037086;28;20060;-51
2022/03/12 07:10:25;;;;;;;6.75;5.90;;;;;;;8.81;nan;101339.66;5054732;28;20108;-56
2022/03/12 07:12:51;;;;;;;9.40;6.38;;;;;;;8.73;nan;101321.41;5054783;28;20036;-52
2022/03/12 07:15:18;;;;;;;8.13;5.80;;;;;;;8.50;nan;101276.31;5054681;28;20151;-50
2022/03/12 07:17:43;;;;;;;6.40;5.80;;;;;;;8.64;nan;101297.09;5053206;28;20033;-56
2022/03/12 07:20:10;;;;;;;9.30;5.78;;;;;;;9.00;nan;101343.69;5054463;28;20068;-53
2022/03/12 07:22:36;;;;;;;6.72;5.60;;;;;;;9.25;nan;101363.34;5054500;28;20028;-55
2022/03/12 07:25:01;;;;;;;5.78;4.90;;;;;;;8.97;nan;101309.59;5054172;28;20041;-52
2022/03/12 07:27:27;;;;;;;8.23;5.78;;;;;;;9.25;nan;101357.25;5054464;28;20041;-54
2022/03/12 07:29:53;;;;;;;7.57;5.30;;;;;;;9.49;nan;101383.03;5054356;28;20041;-53
2022/03/12 07:32:19;;;;;;;7.60;5.57;;;;;;;9.65;nan;101384.47;5054378;28;20064;-54
2022/03/12 07:34:45;;;;;;;6.10;4.93;;;;;;;9.80;nan;101383.31;5036212;28;20064;-52
2022/03/12 07:37:11;;;;;;;6.07;5.13;;;;;;;9.90;nan;101401.47;5054278;28;20065;-52
2022/03/12 07:39:38;;;;;;;9.57;5.32;;;;;;;9.98;nan;101396.91;5054183;28;20119;-51
2022/03/12 07:42:04;;;;;;;6.72;5.60;;;;;;;9.67;nan;101337.13;5053956;28;20547;-51
2022/03/12 07:44:29;;;;;;;6.82;5.10;;;;;;;10.05;nan;101393.28;5053933;28;20119;-52
2022/03/12 07:46:55;;;;;;;7.75;5.05;;;;;;;9.78;nan;101333.38;5052757;28;20286;-54
2022/03/12 07:49:20;;;;;;;7.47;4.85;;;;;;;9.90;nan;101361.16;5053713;28;20125;-50
2022/03/12 07:51:46;;;;;;;4.90;4.47;;;;;;;10.29;nan;101398.94;5054082;28;20041;-53
2022/03/12 07:54:13;;;;;;;6.47;4.93;;;;;;;10.51;nan;101434.38;5054058;28;20496;-54
2022/03/12 07:56:39;;;;;;;5.53;4.13;;;;;;;10.66;nan;101398.03;5053963;28;20103;-55
2022/03/12 07:59:04;;;;;;;7.28;4.85;;;;;;;10.70;nan;101367.25;5036004;28;20045;-54
2022/03/12 08:01:30;;;;;;;8.30;4.60;;;;;;;11.10;nan;101380.25;5053733;28;20611;-55
2022/03/12 08:03:55;;;;;;;6.43;4.07;;;;;;;11.76;nan;101430.38;5053539;28;20029;-56
2022/03/12 08:06:20;;;;;;;5.07;4.32;;;;;;;11.61;nan;101375.38;5053856;28;20510;-57
2022/03/12 08:08:46;;;;;;;7.45;4.50;;;;;;;12.18;nan;101431.75;5052299;28;20052;-55
2022/03/12 08:11:30;;;;;;;4.57;3.67;;;;;;;12.10;nan;101391.53;5035932;28;20025;-52
2022/03/12 08:14:08;;;;;;;5.68;3.97;;;;;;;12.56;nan;101404.19;5052917;28;20040;-53
2022/03/12 08:16:35;;;;;;;7.88;4.25;;;;;;;13.12;nan;101462.31;5053765;28;20032;-55
2022/03/12 08:19:05;;;;;;;8.65;4.07;;;;;;;13.44;nan;101483.25;5053522;28;20546;-53
2022/03/12 08:21:31;;;;;;;4.60;3.08;;;;;;;13.75;nan;101493.63;5053322;28;20029;-52
2022/03/12 08:23:58;;;;;;;19.00;5.25;;;;;;;14.21;nan;101482.25;5053240;28;20428;-54
2022/03/12 08:26:23;;;;;;;5.15;2.95;;;;;;;14.04;nan;101459.03;5053142;28;20465;-53
2022/03/12 08:28:49;;;;;;;4.90;2.95;;;;;;;14.53;nan;101442.22;5035101;28;20095;-52
2022/03/12 08:31:15;;;;;;;20.25;4.45;;;;;;;14.98;nan;101479.25;5053217;28;20037;-55
2022/03/12 08:33:40;;;;;;;8.77;3.42;;;;;;;15.05;nan;101512.56;5053168;28;20025;-55
2022/03/12 08:36:06;;;;;;;4.68;2.97;;;;;;;14.69;nan;101501.59;5035177;28;20090;-50
2022/03/12 08:38:34;;;;;;;4.60;2.65;;;;;;;14.55;nan;101469.50;5052852;28;20384;-53
2022/03/12 08:40:59;;;;;;;6.32;3.33;;;;;;;14.77;nan;101517.22;5035155;28;20029;-56
2022/03/12 08:43:25;;;;;;;4.60;3.20;;;;;;;15.08;nan;101518.59;5052942;28;20090;-55
2022/03/12 08:45:50;;;;;;;3.92;2.85;;;;;;;14.65;nan;101447.88;5053091;28;20104;-52
2022/03/12 08:48:17;;;;;;;9.27;3.13;;;;;;;14.90;nan;101474.28;5053120;28;20028;-54
2022/03/12 08:50:43;;;;;;;5.63;2.92;;;;;;;15.28;nan;101531.06;5034846;28;20025;-56
2022/03/12 08:53:10;;;;;;;4.45;3.10;;;;;;;15.47;nan;101542.66;5052937;28;20060;-54
2022/03/12 08:55:35;;;;;;;7.43;3.33;;;;;;;15.06;nan;101509.00;5051440;28;20033;-56
2022/03/12 08:58:00;;;;;;;8.75;2.95;;;;;;;14.62;nan;101493.03;5052285;28;20032;-52
2022/03/12 09:00:25;;;;;;;4.28;3.20;;;;;;;14.66;nan;101546.78;5053009;28;20044;-56
2022/03/12 09:02:51;;;;;;;7.85;3.58;;;;;;;14.19;nan;101535.25;5052724;28;20033;-56
2022/03/12 09:05:17;;;;;;;5.78;2.97;;;;;;;13.86;nan;101532.03;5052680;28;20033;-55
2022/03/12 09:07:43;;;;;;;3.60;3.10;;;;;;;13.72;nan;101538.72;5052342;28;20032;-56
2022/03/12 09:10:11;;;;;;;74.90;10.57;;;;;;;13.67;nan;101535.34;5052561;28;20036;-55
2022/03/12 09:12:40;;;;;;;5.18;3.10;;;;;;;13.37;nan;101482.56;5034826;28;20071;-57
2022/03/12 09:15:06;;;;;;;6.97;3.00;;;;;;;13.83;nan;101534.78;5052398;28;20058;-52
2022/03/12 09:17:32;;;;;;;7.10;3.00;;;;;;;13.79;nan;101533.16;5052555;28;20021;-56
2022/03/12 09:19:57;;;;;;;6.93;3.90;;;;;;;13.88;nan;101529.34;5051074;28;20031;-56
2022/03/12 09:22:23;;;;;;;6.22;3.13;;;;;;;13.74;nan;101519.25;5052249;28;20534;-55
2022/03/12 09:24:49;;;;;;;5.50;3.10;;;;;;;13.43;nan;101468.28;5052520;28;20056;-52
2022/03/12 09:27:14;;;;;;;7.40;3.15;;;;;;;13.79;nan;101517.28;5052226;28;20041;-57
2022/03/12 09:29:39;;;;;;;6.18;2.58;;;;;;;13.67;nan;101541.50;5052227;28;20033;-57
2022/03/12 09:32:05;;;;;;;6.50;3.40;;;;;;;13.52;nan;101547.31;5051811;28;20032;-56
2022/03/12 09:34:31;;;;;;;4.70;2.53;;;;;;;13.64;nan;101561.91;5051783;28;20064;-57
2022/03/12 09:36:57;;;;;;;4.97;2.65;;;;;;;13.62;nan;101530.22;5052195;28;20036;-55
2022/03/12 09:39:22;;;;;;;7.28;2.33;;;;;;;12.73;nan;101398.34;5050425;28;20029;-57
2022/03/12 09:41:48;;;;;;;4.63;2.72;;;;;;;12.78;nan;101483.63;5051581;28;20048;-56
2022/03/12 09:44:13;;;;;;;102.47;14.07;;;;;;;12.88;nan;101548.47;5051962;28;20033;-56
2022/03/12 09:46:39;;;;;;;4.35;2.50;;;;;;;12.53;nan;101527.53;5051165;28;20025;-57
2022/03/12 09:49:05;;;;;;;5.63;1.92;;;;;;;12.69;nan;101502.41;5050406;28;20039;-58
2022/03/12 09:51:32;;;;;;;5.60;2.15;;;;;;;13.04;nan;101536.53;5050548;28;20058;-57
2022/03/12 09:53:59;;;;;;;6.65;2.55;;;;;;;12.94;nan;101545.66;5049532;28;20500;-54
2022/03/12 09:56:25;;;;;;;5.45;2.08;;;;;;;13.06;nan;101552.31;5051175;28;20054;-56
2022/03/12 09:58:50;;;;;;;4.88;2.30;;;;;;;13.19;nan;101564.28;5051748;28;20441;-53
2022/03/12 10:01:16;;;;;;;6.20;2.50;;;;;;;13.58;nan;101559.47;5051781;28;20106;-55
2022/03/12 10:03:43;;;;;;;4.78;1.85;;;;;;;14.19;nan;101564.38;5050625;28;20087;-57
2022/03/12 10:06:08;;;;;;;5.50;1.90;;;;;;;15.08;nan;101573.41;5051844;28;20033;-53
2022/03/12 10:08:34;;;;;;;4.63;2.38;;;;;;;15.80;nan;101568.72;5033907;28;20395;-57
2022/03/12 10:11:00;;;;;;;4.50;1.98;;;;;;;15.95;nan;101546.81;5050385;28;20040;-53
2022/03/12 10:13:25;;;;;;;2.70;2.00;;;;;;;15.99;nan;101580.28;5051062;28;20040;-54
2022/03/12 10:15:51;;;;;;;6.75;2.38;;;;;;;15.91;nan;101593.00;5051482;28;20033;-54
2022/03/12 10:18:17;;;;;;;8.30;2.95;;;;;;;15.26;nan;101574.47;5032227;28;20044;-56
2022/03/12 10:20:43;;;;;;;4.80;2.60;;;;;;;15.19;nan;101587.97;5051422;28;20029;-51
2022/03/12 10:23:08;;;;;;;5.13;2.50;;;;;;;15.07;nan;101576.97;5033563;28;20450;-55
2022/03/12 10:25:34;;;;;;;5.60;2.38;;;;;;;15.15;nan;101596.09;5033797;28;20033;-50
2022/03/12 10:28:00;;;;;;;6.25;2.65;;;;;;;15.56;nan;101536.97;5051418;28;20495;-52
2022/03/12 10:30:25;;;;;;;5.15;2.20;;;;;;;16.86;nan;101588.78;5051729;28;20119;-54
2022/03/12 10:32:51;;;;;;;3.78;2.10;;;;;;;17.21;nan;101564.03;5051552;28;20029;-54
2022/03/12 10:35:21;;;;;;;3.78;1.63;;;;;;;17.23;nan;101567.47;5051722;28;20028;-54
2022/03/12 10:37:48;;;;;;;5.22;1.85;;;;;;;17.32;nan;101520.91;5034834;28;20400;-49
2022/03/12 10:40:18;;;;;;;3.78;1.90;;;;;;;17.92;nan;101530.31;5055202;28;20029;-52
2022/03/12 10:42:59;;;;;;;3.55;1.80;;;;;;;17.93;nan;101532.00;5037413;28;20112;-51
2022/03/12 10:45:27;;;;;;;5.20;1.93;;;;;;;17.98;nan;101543.28;5055409;28;20036;-51
2022/03/12 10:47:55;;;;;;;4.97;2.35;;;;;;;18.38;nan;101576.72;5055088;28;20509;-51
2022/03/12 10:50:23;;;;;;;3.72;2.13;;;;;;;18.25;nan;101528.53;5037369;28;20033;-54
2022/03/12 10:52:50;;;;;;;4.03;2.20;;;;;;;18.49;nan;101593.91;5037371;28;20037;-54
2022/03/12 10:55:29;;;;;;;4.10;2.30;;;;;;;18.33;nan;101560.94;5055231;28;20037;-53
2022/03/12 10:58:01;;;;;;;4.40;1.80;;;;;;;17.90;nan;101535.72;5054882;28;20450;-51
2022/03/12 11:00:31;;;;;;;4.57;2.17;;;;;;;17.94;nan;101464.50;5054944;28;20090;-53
2022/03/12 11:03:00;;;;;;;4.78;1.95;;;;;;;18.18;nan;101535.13;5054865;28;20108;-57
2022/03/12 11:05:35;;;;;;;4.38;2.10;;;;;;;18.68;nan;101534.25;5055041;28;20112;-56
2022/03/12 11:08:16;;;;;;;5.05;2.28;;;;;;;18.79;nan;101587.84;5054948;28;20076;-56
2022/03/12 11:10:50;;;;;;;3.22;2.03;;;;;;;18.01;nan;101543.13;5054782;28;20029;-52
2022/03/12 11:13:43;;;;;;;6.03;2.30;;;;;;;18.12;nan;101531.94;5054614;28;20492;-53
2022/03/12 11:16:13;;;;;;;4.72;2.42;;;;;;;18.61;nan;101610.19;5054900;28;20358;-51
2022/03/12 11:18:50;;;;;;;4.85;2.03;;;;;;;19.31;nan;101608.03;5054650;28;20037;-53
2022/03/12 11:21:44;;;;;;;3.45;1.98;;;;;;;19.50;nan;101607.88;5054558;28;20029;-54
2022/03/12 11:24:42;;;;;;;4.68;2.20;;;;;;;19.58;nan;101611.81;5053033;28;20049;-50
2022/03/12 11:27:12;;;;;;;6.90;2.17;;;;;;;19.86;nan;101607.56;5054433;28;20116;-51
2022/03/12 11:29:39;;;;;;;5.78;1.95;;;;;;;20.17;nan;101618.13;5036382;28;20029;-54
2022/03/12 11:32:09;;;;;;;5.00;2.53;;;;;;;19.76;nan;101617.91;5052936;28;20115;-54
2022/03/12 11:34:39;;;;;;;5.10;2.17;;;;;;;19.18;nan;101609.66;5036493;28;20071;-55
2022/03/12 11:37:14;;;;;;;4.07;1.83;;;;;;;19.17;nan;101602.63;5054298;28;20017;-53
2022/03/12 11:39:50;;;;;;;4.53;2.00;;;;;;;18.38;nan;101552.72;5054447;28;20449;-51
2022/03/12 11:42:17;;;;;;;3.40;2.05;;;;;;;17.77;nan;101625.16;5036222;28;20040;-50